Terminal Aerodrome Forecast
Issued by NWS

Home | Current Version | Previous Version | Text Only | Print | Product List | Glossary On
Versions: 1 2 3 4 5 6 7 8 9 10 11 12 13 14
000
FTUS46 KMTR 281720
TAFOAK
TAF
KOAK 281720Z 2818/2924 31008KT P6SM FEW015
     FM281900 27014G21KT P6SM SKC
     FM282100 27018G26KT P6SM FEW020
     FM290400 28011G18KT P6SM SCT015
     FM290800 27007KT P6SM BKN015
     FM291800 27015KT P6SM SCT020=

USA.gov is the U.S. government's official web portal to all federal, state and local government web resources and services.